sensor_id;sensor_type;location;lat;lon;timestamp;pressure;altitude;pressure_sealevel;temperature;humidity
10587;BME280;5341;47.606;7.576;2023-01-28T00:01:57;99269.56;;;3.49;66.33
10587;BME280;5341;47.606;7.576;2023-01-28T00:04:25;99265.97;;;3.50;65.66
10587;BME280;5341;47.606;7.576;2023-01-28T00:06:54;99263.31;;;3.50;66.36
10587;BME280;5341;47.606;7.576;2023-01-28T00:09:21;99258.03;;;3.50;65.89
10587;BME280;5341;47.606;7.576;2023-01-28T00:11:49;99253.72;;;3.49;65.76
10587;BME280;5341;47.606;7.576;2023-01-28T00:14:16;99251.91;;;3.50;65.79
10587;BME280;5341;47.606;7.576;2023-01-28T00:16:44;99252.75;;;3.50;66.19
10587;BME280;5341;47.606;7.576;2023-01-28T00:19:11;99255.38;;;3.50;66.36
10587;BME280;5341;47.606;7.576;2023-01-28T00:21:39;99254.53;;;3.50;66.03
10587;BME280;5341;47.606;7.576;2023-01-28T00:24:08;99251.91;;;3.50;65.81
10587;BME280;5341;47.606;7.576;2023-01-28T00:26:36;99258.03;;;3.50;66.27
10587;BME280;5341;47.606;7.576;2023-01-28T00:29:04;99256.34;;;3.49;66.35
10587;BME280;5341;47.606;7.576;2023-01-28T00:31:32;99260.81;;;3.49;65.78
10587;BME280;5341;47.606;7.576;2023-01-28T00:34:00;99258.03;;;3.50;66.51
10587;BME280;5341;47.606;7.576;2023-01-28T00:36:27;99257.19;;;3.50;65.74
10587;BME280;5341;47.606;7.576;2023-01-28T00:38:56;99251.91;;;3.50;65.87
10587;BME280;5341;47.606;7.576;2023-01-28T00:41:31;99243.13;;;3.49;66.08
10587;BME280;5341;47.606;7.576;2023-01-28T00:44:04;99243.13;;;3.49;65.96
10587;BME280;5341;47.606;7.576;2023-01-28T00:46:32;99245.78;;;3.49;65.70
10587;BME280;5341;47.606;7.576;2023-01-28T00:49:00;99247.59;;;3.49;65.94
10587;BME280;5341;47.606;7.576;2023-01-28T00:51:27;99244.09;;;3.48;66.38
10587;BME280;5341;47.606;7.576;2023-01-28T00:53:55;99244.94;;;3.49;66.44
10587;BME280;5341;47.606;7.576;2023-01-28T00:56:22;99251.19;;;3.48;66.29
10587;BME280;5341;47.606;7.576;2023-01-28T00:58:51;99251.19;;;3.48;65.70
10587;BME280;5341;47.606;7.576;2023-01-28T01:01:20;99243.38;;;3.46;66.38
10587;BME280;5341;47.606;7.576;2023-01-28T01:03:49;99252.16;;;3.47;66.29
10587;BME280;5341;47.606;7.576;2023-01-28T01:06:21;99248.69;;;3.46;66.09
10587;BME280;5341;47.606;7.576;2023-01-28T01:08:48;99253.00;;;3.47;66.13
10587;BME280;5341;47.606;7.576;2023-01-28T01:11:17;99250.34;;;3.47;66.32
10587;BME280;5341;47.606;7.576;2023-01-28T01:13:50;99256.63;;;3.46;65.76
10587;BME280;5341;47.606;7.576;2023-01-28T01:16:20;99256.75;;;3.45;66.18
10587;BME280;5341;47.606;7.576;2023-01-28T01:18:49;99265.50;;;3.45;65.83
10587;BME280;5341;47.606;7.576;2023-01-28T01:21:18;99262.16;;;3.43;65.68
10587;BME280;5341;47.606;7.576;2023-01-28T01:23:50;99262.03;;;3.45;66.23
10587;BME280;5341;47.606;7.576;2023-01-28T01:26:18;99269.13;;;3.44;65.96
10587;BME280;5341;47.606;7.576;2023-01-28T01:28:45;99258.53;;;3.44;66.15
10587;BME280;5341;47.606;7.576;2023-01-28T01:31:16;99259.38;;;3.45;66.02
10587;BME280;5341;47.606;7.576;2023-01-28T01:33:46;99253.25;;;3.44;66.22
10587;BME280;5341;47.606;7.576;2023-01-28T01:36:15;99248.94;;;3.43;66.02
10587;BME280;5341;47.606;7.576;2023-01-28T01:38:44;99253.25;;;3.44;65.86
10587;BME280;5341;47.606;7.576;2023-01-28T01:41:21;99249.78;;;3.44;66.10
10587;BME280;5341;47.606;7.576;2023-01-28T01:43:51;99253.25;;;3.44;66.24
10587;BME280;5341;47.606;7.576;2023-01-28T01:46:22;99253.25;;;3.44;66.37
10587;BME280;5341;47.606;7.576;2023-01-28T01:48:54;99250.63;;;3.44;66.14
10587;BME280;5341;47.606;7.576;2023-01-28T01:51:25;99247.13;;;3.44;66.35
10587;BME280;5341;47.606;7.576;2023-01-28T01:53:55;99252.28;;;3.45;65.70
10587;BME280;5341;47.606;7.576;2023-01-28T01:56:27;99241.00;;;3.43;65.70
10587;BME280;5341;47.606;7.576;2023-01-28T01:58:57;99244.63;;;3.42;65.75
10587;BME280;5341;47.606;7.576;2023-01-28T02:01:29;99246.28;;;3.43;66.01
10587;BME280;5341;47.606;7.576;2023-01-28T02:04:02;99248.94;;;3.43;66.38
10587;BME280;5341;47.606;7.576;2023-01-28T02:06:31;99251.59;;;3.43;66.25
10587;BME280;5341;47.606;7.576;2023-01-28T02:08:59;99253.25;;;3.44;66.17
10587;BME280;5341;47.606;7.576;2023-01-28T02:11:29;99247.97;;;3.44;66.12
10587;BME280;5341;47.606;7.576;2023-01-28T02:14:01;99247.97;;;3.44;65.91
10587;BME280;5341;47.606;7.576;2023-01-28T02:16:32;99241.84;;;3.44;65.99
10587;BME280;5341;47.606;7.576;2023-01-28T02:19:00;99249.78;;;3.44;66.06
10587;BME280;5341;47.606;7.576;2023-01-28T02:21:59;99249.66;;;3.45;66.33
10587;BME280;5341;47.606;7.576;2023-01-28T02:24:52;99249.78;;;3.44;65.94
10587;BME280;5341;47.606;7.576;2023-01-28T02:27:29;99258.53;;;3.44;66.06
10587;BME280;5341;47.606;7.576;2023-01-28T02:30:03;99249.78;;;3.44;66.17
10587;BME280;5341;47.606;7.576;2023-01-28T02:32:36;99253.25;;;3.44;65.98
10587;BME280;5341;47.606;7.576;2023-01-28T02:35:11;99249.78;;;3.44;65.77
10587;BME280;5341;47.606;7.576;2023-01-28T02:37:46;99251.59;;;3.43;65.92
10587;BME280;5341;47.606;7.576;2023-01-28T02:40:20;99247.25;;;3.42;66.18
10587;BME280;5341;47.606;7.576;2023-01-28T02:42:49;99251.59;;;3.43;66.22
10587;BME280;5341;47.606;7.576;2023-01-28T02:45:21;99259.38;;;3.45;66.12
10587;BME280;5341;47.606;7.576;2023-01-28T02:47:49;99258.53;;;3.44;66.25
10587;BME280;5341;47.606;7.576;2023-01-28T02:50:32;99255.06;;;3.44;65.96
10587;BME280;5341;47.606;7.576;2023-01-28T02:53:12;99254.09;;;3.45;65.88
10587;BME280;5341;47.606;7.576;2023-01-28T02:56:09;99248.94;;;3.43;66.37
10587;BME280;5341;47.606;7.576;2023-01-28T02:58:45;99255.91;;;3.44;65.88
10587;BME280;5341;47.606;7.576;2023-01-28T03:01:23;99265.63;;;3.44;66.05
10587;BME280;5341;47.606;7.576;2023-01-28T03:03:57;99262.16;;;3.43;65.78
10587;BME280;5341;47.606;7.576;2023-01-28T03:06:31;99265.63;;;3.44;66.50
10587;BME280;5341;47.606;7.576;2023-01-28T03:09:11;99256.88;;;3.43;66.11
10587;BME280;5341;47.606;7.576;2023-01-28T03:11:55;99259.50;;;3.43;66.04
10587;BME280;5341;47.606;7.576;2023-01-28T03:14:42;99260.34;;;3.44;65.76
10587;BME280;5341;47.606;7.576;2023-01-28T03:17:35;99258.53;;;3.44;65.74
10587;BME280;5341;47.606;7.576;2023-01-28T03:20:26;99253.25;;;3.44;65.95
10587;BME280;5341;47.606;7.576;2023-01-28T03:23:17;99249.78;;;3.44;66.02
10587;BME280;5341;47.606;7.576;2023-01-28T03:26:13;99255.91;;;3.44;66.07
10587;BME280;5341;47.606;7.576;2023-01-28T03:29:05;99254.09;;;3.45;66.41
10587;BME280;5341;47.606;7.576;2023-01-28T03:31:52;99259.38;;;3.45;66.21
10587;BME280;5341;47.606;7.576;2023-01-28T03:34:43;99267.31;;;3.45;66.15
10587;BME280;5341;47.606;7.576;2023-01-28T03:40:04;99267.31;;;3.45;66.31
10587;BME280;5341;47.606;7.576;2023-01-28T03:42:32;99272.59;;;3.45;65.86
10587;BME280;5341;47.606;7.576;2023-01-28T03:45:14;99270.78;;;3.45;66.02
10587;BME280;5341;47.606;7.576;2023-01-28T03:47:41;99278.72;;;3.45;65.87
10587;BME280;5341;47.606;7.576;2023-01-28T03:50:12;99273.44;;;3.45;65.85
10587;BME280;5341;47.606;7.576;2023-01-28T03:52:50;99271.63;;;3.46;66.42
10587;BME280;5341;47.606;7.576;2023-01-28T03:55:28;99274.28;;;3.46;66.41
10587;BME280;5341;47.606;7.576;2023-01-28T03:57:55;99282.09;;;3.47;65.86
10587;BME280;5341;47.606;7.576;2023-01-28T04:00:23;99283.06;;;3.46;65.78
10587;BME280;5341;47.606;7.576;2023-01-28T04:02:51;99278.59;;;3.47;66.50
10587;BME280;5341;47.606;7.576;2023-01-28T04:05:26;99276.78;;;3.47;66.40
10587;BME280;5341;47.606;7.576;2023-01-28T04:07:57;99276.78;;;3.47;66.44
10587;BME280;5341;47.606;7.576;2023-01-28T04:10:38;99276.78;;;3.47;66.13
10587;BME280;5341;47.606;7.576;2023-01-28T04:13:20;99275.97;;;3.47;66.29
10587;BME280;5341;47.606;7.576;2023-01-28T04:15:48;99280.41;;;3.46;65.83
10587;BME280;5341;47.606;7.576;2023-01-28T04:18:17;99273.31;;;3.47;66.44
10587;BME280;5341;47.606;7.576;2023-01-28T04:20:57;99277.63;;;3.48;65.88
10587;BME280;5341;47.606;7.576;2023-01-28T04:23:38;99282.78;;;3.49;65.81
10587;BME280;5341;47.606;7.576;2023-01-28T04:26:07;99280.28;;;3.48;66.47
10587;BME280;5341;47.606;7.576;2023-01-28T04:28:34;99285.56;;;3.48;66.28
10587;BME280;5341;47.606;7.576;2023-01-28T04:31:02;99290.72;;;3.49;66.51
10587;BME280;5341;47.606;7.576;2023-01-28T04:33:40;99289.88;;;3.49;66.30
10587;BME280;5341;47.606;7.576;2023-01-28T04:36:30;99284.59;;;3.49;66.41
10587;BME280;5341;47.606;7.576;2023-01-28T04:39:16;99297.81;;;3.49;66.46
10587;BME280;5341;47.606;7.576;2023-01-28T04:42:05;99298.66;;;3.49;66.49
10587;BME280;5341;47.606;7.576;2023-01-28T04:44:55;99302.28;;;3.48;66.44
10587;BME280;5341;47.606;7.576;2023-01-28T04:47:41;99299.63;;;3.48;66.38
10587;BME280;5341;47.606;7.576;2023-01-28T04:50:22;99296.97;;;3.48;66.12
10587;BME280;5341;47.606;7.576;2023-01-28T04:53:12;99296.97;;;3.48;66.14
10587;BME280;5341;47.606;7.576;2023-01-28T04:56:12;99302.28;;;3.48;66.09
10587;BME280;5341;47.606;7.576;2023-01-28T04:58:39;99297.81;;;3.49;66.04
10587;BME280;5341;47.606;7.576;2023-01-28T05:01:12;99297.81;;;3.49;65.81
10587;BME280;5341;47.606;7.576;2023-01-28T05:03:39;99303.09;;;3.49;66.21
10587;BME280;5341;47.606;7.576;2023-01-28T05:06:09;99305.75;;;3.49;65.65
10587;BME280;5341;47.606;7.576;2023-01-28T05:08:44;99309.22;;;3.49;66.25
10587;BME280;5341;47.606;7.576;2023-01-28T05:11:13;99307.44;;;3.50;66.07
10587;BME280;5341;47.606;7.576;2023-01-28T05:13:42;99311.03;;;3.49;66.31
10587;BME280;5341;47.606;7.576;2023-01-28T05:16:12;99318.00;;;3.50;65.72
10587;BME280;5341;47.606;7.576;2023-01-28T05:18:39;99316.31;;;3.49;66.47
10587;BME280;5341;47.606;7.576;2023-01-28T05:21:10;99321.50;;;3.50;66.08
10587;BME280;5341;47.606;7.576;2023-01-28T05:23:39;99318.84;;;3.50;66.35
10587;BME280;5341;47.606;7.576;2023-01-28T05:26:08;99320.66;;;3.50;66.08
10587;BME280;5341;47.606;7.576;2023-01-28T05:28:37;99320.78;;;3.48;65.99
10587;BME280;5341;47.606;7.576;2023-01-28T05:31:06;99320.78;;;3.48;66.52
10587;BME280;5341;47.606;7.576;2023-01-28T05:33:34;99323.41;;;3.48;66.08
10587;BME280;5341;47.606;7.576;2023-01-28T05:36:04;99312.84;;;3.48;66.20
10587;BME280;5341;47.606;7.576;2023-01-28T05:38:32;99318.13;;;3.48;65.70
10587;BME280;5341;47.606;7.576;2023-01-28T05:41:00;99318.13;;;3.48;65.86
10587;BME280;5341;47.606;7.576;2023-01-28T05:46:09;99325.22;;;3.48;66.48
10587;BME280;5341;47.606;7.576;2023-01-28T05:49:12;99328.00;;;3.46;66.50
10587;BME280;5341;47.606;7.576;2023-01-28T05:52:21;99326.31;;;3.45;65.98
10587;BME280;5341;47.606;7.576;2023-01-28T05:54:49;99331.59;;;3.45;66.57
10587;BME280;5341;47.606;7.576;2023-01-28T05:57:17;99334.25;;;3.45;66.37
10587;BME280;5341;47.606;7.576;2023-01-28T05:59:44;99334.25;;;3.45;66.54
10587;BME280;5341;47.606;7.576;2023-01-28T06:02:14;99331.47;;;3.47;66.42
10587;BME280;5341;47.606;7.576;2023-01-28T06:04:42;99325.34;;;3.46;66.40
10587;BME280;5341;47.606;7.576;2023-01-28T06:07:15;99338.56;;;3.46;66.54
10587;BME280;5341;47.606;7.576;2023-01-28T06:09:46;99328.84;;;3.47;66.44
10587;BME280;5341;47.606;7.576;2023-01-28T06:12:16;99335.09;;;3.46;66.30
10587;BME280;5341;47.606;7.576;2023-01-28T06:15:10;99330.63;;;3.46;66.62
10587;BME280;5341;47.606;7.576;2023-01-28T06:18:01;99333.28;;;3.46;65.88
10587;BME280;5341;47.606;7.576;2023-01-28T06:20:32;99335.09;;;3.46;66.08
10587;BME280;5341;47.606;7.576;2023-01-28T06:23:00;99344.69;;;3.47;66.41
10587;BME280;5341;47.606;7.576;2023-01-28T06:25:28;99345.53;;;3.47;66.45
10587;BME280;5341;47.606;7.576;2023-01-28T06:28:00;99348.19;;;3.47;66.02
10587;BME280;5341;47.606;7.576;2023-01-28T06:30:34;99351.66;;;3.48;66.16
10587;BME280;5341;47.606;7.576;2023-01-28T06:33:10;99348.19;;;3.47;66.07
10587;BME280;5341;47.606;7.576;2023-01-28T06:35:38;99348.06;;;3.49;66.55
10587;BME280;5341;47.606;7.576;2023-01-28T06:38:08;99355.16;;;3.48;65.86
10587;BME280;5341;47.606;7.576;2023-01-28T06:40:41;99353.34;;;3.49;66.41
10587;BME280;5341;47.606;7.576;2023-01-28T06:43:14;99362.00;;;3.51;65.84
10587;BME280;5341;47.606;7.576;2023-01-28T06:45:54;99368.16;;;3.51;66.39
10587;BME280;5341;47.606;7.576;2023-01-28T06:48:27;99369.91;;;3.51;66.03
10587;BME280;5341;47.606;7.576;2023-01-28T06:50:56;99362.94;;;3.50;66.09
10587;BME280;5341;47.606;7.576;2023-01-28T06:53:27;99365.59;;;3.50;65.88
10587;BME280;5341;47.606;7.576;2023-01-28T06:55:55;99372.69;;;3.49;66.40
10587;BME280;5341;47.606;7.576;2023-01-28T06:58:23;99372.69;;;3.49;66.44
10587;BME280;5341;47.606;7.576;2023-01-28T07:00:53;99371.72;;;3.50;66.27
10587;BME280;5341;47.606;7.576;2023-01-28T07:03:28;99379.66;;;3.50;66.37
10587;BME280;5341;47.606;7.576;2023-01-28T07:05:55;99381.38;;;3.51;66.11
10587;BME280;5341;47.606;7.576;2023-01-28T07:08:23;99375.22;;;3.51;66.42
10587;BME280;5341;47.606;7.576;2023-01-28T07:10:50;99376.09;;;3.51;66.32
10587;BME280;5341;47.606;7.576;2023-01-28T07:13:22;99380.50;;;3.51;66.00
10587;BME280;5341;47.606;7.576;2023-01-28T07:15:56;99381.38;;;3.51;65.92
10587;BME280;5341;47.606;7.576;2023-01-28T07:18:23;99384.84;;;3.52;66.25
10587;BME280;5341;47.606;7.576;2023-01-28T07:20:52;99382.22;;;3.52;65.67
10587;BME280;5341;47.606;7.576;2023-01-28T07:23:19;99390.00;;;3.53;66.04
10587;BME280;5341;47.606;7.576;2023-01-28T07:25:48;99385.69;;;3.52;65.98
10587;BME280;5341;47.606;7.576;2023-01-28T07:28:16;99388.34;;;3.52;65.91
10587;BME280;5341;47.606;7.576;2023-01-28T07:30:47;99390.00;;;3.53;66.24
10587;BME280;5341;47.606;7.576;2023-01-28T07:33:15;99389.19;;;3.53;65.61
10587;BME280;5341;47.606;7.576;2023-01-28T07:35:44;99398.91;;;3.52;66.21
10587;BME280;5341;47.606;7.576;2023-01-28T07:38:15;99395.31;;;3.53;66.38
10587;BME280;5341;47.606;7.576;2023-01-28T07:40:43;99392.66;;;3.53;66.23
10587;BME280;5341;47.606;7.576;2023-01-28T07:43:11;99391.81;;;3.53;66.12
10587;BME280;5341;47.606;7.576;2023-01-28T07:45:40;99398.78;;;3.54;65.98
10587;BME280;5341;47.606;7.576;2023-01-28T07:48:10;99403.22;;;3.53;66.39
10587;BME280;5341;47.606;7.576;2023-01-28T07:50:38;99403.22;;;3.53;66.54
10587;BME280;5341;47.606;7.576;2023-01-28T07:53:07;99407.69;;;3.53;66.67
10587;BME280;5341;47.606;7.576;2023-01-28T07:55:40;99405.16;;;3.51;66.60
10587;BME280;5341;47.606;7.576;2023-01-28T07:58:10;99403.34;;;3.52;66.49
10587;BME280;5341;47.606;7.576;2023-01-28T08:00:39;99406.00;;;3.52;66.04
10587;BME280;5341;47.606;7.576;2023-01-28T08:03:10;99403.34;;;3.52;66.39
10587;BME280;5341;47.606;7.576;2023-01-28T08:05:40;99407.69;;;3.53;66.41
10587;BME280;5341;47.606;7.576;2023-01-28T08:08:09;99410.31;;;3.53;65.92
10587;BME280;5341;47.606;7.576;2023-01-28T08:10:37;99412.00;;;3.54;66.12
10587;BME280;5341;47.606;7.576;2023-01-28T08:13:07;99420.66;;;3.56;66.35
10587;BME280;5341;47.606;7.576;2023-01-28T08:15:36;99417.03;;;3.57;66.26
10587;BME280;5341;47.606;7.576;2023-01-28T08:18:05;99423.31;;;3.56;66.50
10587;BME280;5341;47.606;7.576;2023-01-28T08:20:33;99427.63;;;3.57;66.73
10587;BME280;5341;47.606;7.576;2023-01-28T08:23:08;99422.34;;;3.57;65.98
10587;BME280;5341;47.606;7.576;2023-01-28T08:25:38;99432.78;;;3.59;66.73
10587;BME280;5341;47.606;7.576;2023-01-28T08:28:07;99430.25;;;3.57;66.12
10587;BME280;5341;47.606;7.576;2023-01-28T08:30:35;99432.91;;;3.57;66.67
10587;BME280;5341;47.606;7.576;2023-01-28T08:33:04;99431.94;;;3.58;66.45
10587;BME280;5341;47.606;7.576;2023-01-28T08:35:33;99443.38;;;3.59;66.75
10587;BME280;5341;47.606;7.576;2023-01-28T08:38:02;99445.88;;;3.60;66.44
10587;BME280;5341;47.606;7.576;2023-01-28T08:40:30;99443.38;;;3.59;66.67
10587;BME280;5341;47.606;7.576;2023-01-28T08:42:58;99450.34;;;3.60;66.44
10587;BME280;5341;47.606;7.576;2023-01-28T08:45:27;99452.13;;;3.59;66.13
10587;BME280;5341;47.606;7.576;2023-01-28T08:47:56;99453.94;;;3.59;66.52
10587;BME280;5341;47.606;7.576;2023-01-28T08:50:25;99455.75;;;3.58;66.10
10587;BME280;5341;47.606;7.576;2023-01-28T08:52:57;99457.44;;;3.59;66.76
10587;BME280;5341;47.606;7.576;2023-01-28T08:55:26;99467.03;;;3.60;66.75
10587;BME280;5341;47.606;7.576;2023-01-28T08:57:54;99463.56;;;3.60;66.45
10587;BME280;5341;47.606;7.576;2023-01-28T09:00:22;99459.09;;;3.60;66.48
10587;BME280;5341;47.606;7.576;2023-01-28T09:02:52;99457.31;;;3.61;66.86
10587;BME280;5341;47.606;7.576;2023-01-28T09:05:20;99465.13;;;3.62;66.50
10587;BME280;5341;47.606;7.576;2023-01-28T09:07:48;99477.38;;;3.63;66.79
10587;BME280;5341;47.606;7.576;2023-01-28T09:10:16;99479.09;;;3.64;66.83
10587;BME280;5341;47.606;7.576;2023-01-28T09:12:45;99475.47;;;3.65;66.23
10587;BME280;5341;47.606;7.576;2023-01-28T09:15:13;99471.88;;;3.66;66.74
10587;BME280;5341;47.606;7.576;2023-01-28T09:17:41;99476.06;;;3.69;66.27
10587;BME280;5341;47.606;7.576;2023-01-28T09:20:15;99479.41;;;3.71;66.42
10587;BME280;5341;47.606;7.576;2023-01-28T09:22:46;99476.91;;;3.69;66.32
10587;BME280;5341;47.606;7.576;2023-01-28T09:25:14;99484.72;;;3.71;65.92
10587;BME280;5341;47.606;7.576;2023-01-28T09:27:41;99483.75;;;3.72;66.33
10587;BME280;5341;47.606;7.576;2023-01-28T09:30:09;99481.09;;;3.72;66.72
10587;BME280;5341;47.606;7.576;2023-01-28T09:32:38;99485.44;;;3.73;66.31
10587;BME280;5341;47.606;7.576;2023-01-28T09:35:06;99484.59;;;3.72;66.34
10587;BME280;5341;47.606;7.576;2023-01-28T09:37:35;99486.41;;;3.72;66.76
10587;BME280;5341;47.606;7.576;2023-01-28T09:40:03;99489.88;;;3.72;66.65
10587;BME280;5341;47.606;7.576;2023-01-28T09:45:25;99490.72;;;3.73;66.29
10587;BME280;5341;47.606;7.576;2023-01-28T09:48:00;99485.31;;;3.74;66.31
10587;BME280;5341;47.606;7.576;2023-01-28T09:50:31;99491.44;;;3.75;66.36
10587;BME280;5341;47.606;7.576;2023-01-28T09:53:04;99491.44;;;3.75;66.64
10587;BME280;5341;47.606;7.576;2023-01-28T09:55:35;99486.06;;;3.76;66.30
10587;BME280;5341;47.606;7.576;2023-01-28T09:58:06;99497.56;;;3.75;65.92
10587;BME280;5341;47.606;7.576;2023-01-28T10:00:42;99493.25;;;3.74;66.85
10587;BME280;5341;47.606;7.576;2023-01-28T10:03:31;99499.28;;;3.76;66.40
10587;BME280;5341;47.606;7.576;2023-01-28T10:06:15;99500.84;;;3.79;66.62
10587;BME280;5341;47.606;7.576;2023-01-28T10:09:16;99488.31;;;3.81;66.48
10587;BME280;5341;47.606;7.576;2023-01-28T10:11:57;99483.03;;;3.81;66.61
10587;BME280;5341;47.606;7.576;2023-01-28T10:14:36;99476.78;;;3.82;66.34
10587;BME280;5341;47.606;7.576;2023-01-28T10:17:12;99480.25;;;3.82;66.64
10587;BME280;5341;47.606;7.576;2023-01-28T10:19:47;99492.53;;;3.83;66.27
10587;BME280;5341;47.606;7.576;2023-01-28T10:22:19;99480.97;;;3.85;66.83
10587;BME280;5341;47.606;7.576;2023-01-28T10:24:53;99482.66;;;3.86;66.33
10587;BME280;5341;47.606;7.576;2023-01-28T10:27:25;99490.47;;;3.87;66.22
10587;BME280;5341;47.606;7.576;2023-01-28T10:29:54;99480.72;;;3.88;67.01
10587;BME280;5341;47.606;7.576;2023-01-28T10:32:28;99485.06;;;3.89;66.55
10587;BME280;5341;47.606;7.576;2023-01-28T10:34:57;99486.88;;;3.88;66.11
10587;BME280;5341;47.606;7.576;2023-01-28T10:37:26;99486.75;;;3.90;66.21
10587;BME280;5341;47.606;7.576;2023-01-28T10:39:57;99482.44;;;3.89;66.51
10587;BME280;5341;47.606;7.576;2023-01-28T10:42:27;99485.16;;;3.87;65.85
10587;BME280;5341;47.606;7.576;2023-01-28T10:44:58;99483.50;;;3.86;65.81
10587;BME280;5341;47.606;7.576;2023-01-28T10:47:30;99480.84;;;3.86;66.38
10587;BME280;5341;47.606;7.576;2023-01-28T10:50:00;99480.00;;;3.86;66.47
10587;BME280;5341;47.606;7.576;2023-01-28T10:52:28;99477.22;;;3.87;66.44
10587;BME280;5341;47.606;7.576;2023-01-28T10:55:02;99474.72;;;3.86;65.80
10587;BME280;5341;47.606;7.576;2023-01-28T10:57:32;99471.09;;;3.87;66.00
10587;BME280;5341;47.606;7.576;2023-01-28T11:00:10;99477.84;;;3.91;66.45
10587;BME280;5341;47.606;7.576;2023-01-28T11:02:38;99472.31;;;3.94;65.94
10587;BME280;5341;47.606;7.576;2023-01-28T11:05:16;99466.63;;;3.98;66.21
10587;BME280;5341;47.606;7.576;2023-01-28T11:07:45;99464.00;;;3.98;66.02
10587;BME280;5341;47.606;7.576;2023-01-28T11:10:37;99460.28;;;4.01;66.22
10587;BME280;5341;47.606;7.576;2023-01-28T11:13:12;99462.94;;;4.01;65.92
10587;BME280;5341;47.606;7.576;2023-01-28T11:15:45;99458.34;;;4.03;66.03
10587;BME280;5341;47.606;7.576;2023-01-28T11:18:17;99462.66;;;4.04;66.05
10587;BME280;5341;47.606;7.576;2023-01-28T11:20:51;99472.16;;;4.06;66.13
10587;BME280;5341;47.606;7.576;2023-01-28T11:23:22;99462.41;;;4.07;66.02
10587;BME280;5341;47.606;7.576;2023-01-28T11:26:03;99472.75;;;4.10;66.73
10587;BME280;5341;47.606;7.576;2023-01-28T11:28:32;99461.19;;;4.11;66.40
10587;BME280;5341;47.606;7.576;2023-01-28T11:31:00;99459.28;;;4.13;66.55
10587;BME280;5341;47.606;7.576;2023-01-28T11:33:36;99461.94;;;4.13;65.89
10587;BME280;5341;47.606;7.576;2023-01-28T11:36:10;99456.50;;;4.15;66.01
10587;BME280;5341;47.606;7.576;2023-01-28T11:38:48;99466.13;;;4.16;66.19
10587;BME280;5341;47.606;7.576;2023-01-28T11:41:18;99461.69;;;4.16;65.83
10587;BME280;5341;47.606;7.576;2023-01-28T11:43:51;99454.59;;;4.17;66.14
10587;BME280;5341;47.606;7.576;2023-01-28T11:46:35;99463.22;;;4.19;66.50
10587;BME280;5341;47.606;7.576;2023-01-28T11:49:10;99458.78;;;4.19;66.72
10587;BME280;5341;47.606;7.576;2023-01-28T11:51:46;99456.00;;;4.21;66.27
10587;BME280;5341;47.606;7.576;2023-01-28T11:54:24;99454.91;;;4.23;66.14
10587;BME280;5341;47.606;7.576;2023-01-28T11:57:10;99461.78;;;4.26;66.17
10587;BME280;5341;47.606;7.576;2023-01-28T11:59:53;99466.09;;;4.27;65.76
10587;BME280;5341;47.606;7.576;2023-01-28T12:02:36;99456.34;;;4.27;65.73
10587;BME280;5341;47.606;7.576;2023-01-28T12:05:18;99456.94;;;4.31;66.24
10587;BME280;5341;47.606;7.576;2023-01-28T12:07:53;99453.31;;;4.32;66.54
10587;BME280;5341;47.606;7.576;2023-01-28T12:10:26;99457.53;;;4.34;65.82
10587;BME280;5341;47.606;7.576;2023-01-28T12:13:17;99461.84;;;4.35;66.16
10587;BME280;5341;47.606;7.576;2023-01-28T12:19:11;99462.59;;;4.37;66.10
10587;BME280;5341;47.606;7.576;2023-01-28T12:21:52;99467.75;;;4.39;66.20
10587;BME280;5341;47.606;7.576;2023-01-28T12:24:34;99464.97;;;4.40;65.41
10587;BME280;5341;47.606;7.576;2023-01-28T12:27:12;99462.19;;;4.42;65.66
10587;BME280;5341;47.606;7.576;2023-01-28T12:29:53;99458.72;;;4.41;64.89
10587;BME280;5341;47.606;7.576;2023-01-28T12:32:36;99459.56;;;4.42;65.57
10587;BME280;5341;47.606;7.576;2023-01-28T12:35:30;99456.66;;;4.45;65.70
10587;BME280;5341;47.606;7.576;2023-01-28T12:38:08;99463.75;;;4.45;65.30
10587;BME280;5341;47.606;7.576;2023-01-28T12:40:49;99463.75;;;4.45;64.96
10587;BME280;5341;47.606;7.576;2023-01-28T12:43:24;99462.78;;;4.46;64.82
10587;BME280;5341;47.606;7.576;2023-01-28T12:45:59;99462.78;;;4.46;65.14
10587;BME280;5341;47.606;7.576;2023-01-28T12:48:33;99453.03;;;4.46;64.93
10587;BME280;5341;47.606;7.576;2023-01-28T12:51:10;99459.28;;;4.45;64.88
10587;BME280;5341;47.606;7.576;2023-01-28T12:53:42;99460.84;;;4.48;64.83
10587;BME280;5341;47.606;7.576;2023-01-28T12:56:15;99456.28;;;4.50;65.65
10587;BME280;5341;47.606;7.576;2023-01-28T12:58:48;99450.84;;;4.51;65.96
10587;BME280;5341;47.606;7.576;2023-01-28T13:01:23;99446.41;;;4.52;65.49
10587;BME280;5341;47.606;7.576;2023-01-28T13:03:56;99451.56;;;4.53;65.07
10587;BME280;5341;47.606;7.576;2023-01-28T13:06:31;99456.88;;;4.53;64.85
10587;BME280;5341;47.606;7.576;2023-01-28T13:09:08;99460.22;;;4.55;65.66
10587;BME280;5341;47.606;7.576;2023-01-28T13:11:37;99451.44;;;4.55;65.16
10587;BME280;5341;47.606;7.576;2023-01-28T13:14:06;99466.47;;;4.54;65.61
10587;BME280;5341;47.606;7.576;2023-01-28T13:16:36;99458.53;;;4.54;65.65
10587;BME280;5341;47.606;7.576;2023-01-28T13:19:07;99464.69;;;4.55;65.61
10587;BME280;5341;47.606;7.576;2023-01-28T13:21:37;99456.72;;;4.55;65.47
10587;BME280;5341;47.606;7.576;2023-01-28T13:24:18;99466.34;;;4.56;65.46
10587;BME280;5341;47.606;7.576;2023-01-28T13:26:48;99470.69;;;4.57;65.27
10587;BME280;5341;47.606;7.576;2023-01-28T13:29:30;99462.59;;;4.58;65.65
10587;BME280;5341;47.606;7.576;2023-01-28T13:32:02;99461.91;;;4.56;64.66
10587;BME280;5341;47.606;7.576;2023-01-28T13:34:33;99473.34;;;4.57;64.97
10587;BME280;5341;47.606;7.576;2023-01-28T13:37:06;99480.56;;;4.55;65.14
10587;BME280;5341;47.606;7.576;2023-01-28T13:39:47;99475.28;;;4.55;65.55
10587;BME280;5341;47.606;7.576;2023-01-28T13:42:23;99479.72;;;4.54;65.40
10587;BME280;5341;47.606;7.576;2023-01-28T13:44:51;99484.19;;;4.54;65.41
10587;BME280;5341;47.606;7.576;2023-01-28T13:47:24;99479.72;;;4.54;65.02
10587;BME280;5341;47.606;7.576;2023-01-28T13:49:56;99480.56;;;4.55;64.91
10587;BME280;5341;47.606;7.576;2023-01-28T13:52:27;99481.41;;;4.55;65.02
10587;BME280;5341;47.606;7.576;2023-01-28T13:55:00;99479.59;;;4.56;65.03
10587;BME280;5341;47.606;7.576;2023-01-28T14:01:05;99487.41;;;4.57;65.09
10587;BME280;5341;47.606;7.576;2023-01-28T14:03:53;99491.88;;;4.57;64.98
10587;BME280;5341;47.606;7.576;2023-01-28T14:09:45;99489.22;;;4.57;64.51
10587;BME280;5341;47.606;7.576;2023-01-28T14:12:35;99490.91;;;4.58;64.80
10587;BME280;5341;47.606;7.576;2023-01-28T14:15:18;99490.91;;;4.58;64.30